To NAV CANADA Home Page Login to a new session Search on AWWS site Disclaimer Vers la page française équivalente Tips FAQ What's new on the site To the Forecasts and Observations / NOTAM section To "File a Flight Plan" website Publications and other links Update of the User's profile FIC Telephone Numbers My Weather Data Folder Route Weather Data Regional Weather Data Local Weather Data To the Forecasts and Observations / NOTAM section
Request Generated 10/19/2018 at 15:28:25 UTC . Weather information available at that time is displayed.

METAR/TAF

BELLA COOLA/BC    (show WxCam)

METAR CYBD 191500Z VRB02KT 1SM BR SKC 04/04 A3021 RMK SLP233=
SPECI CYBD 191446Z 00000KT 1SM BR SKC 04/04 A3021 RMK SLP232=
METAR CYBD 191400Z 10003KT 030V120 15SM BCFG SKC 04/04 A3020 RMK SLP230=
METAR CYBD 191300Z 00000KT 15SM BCFG SKC 05/05 A3019 RMK SLP226=

CYBD - No TAF is issued for this station

Your time UTC time
Weather data provided by Environment Canada and NAV CANADA